Time;durP1;ratioP1;P1;durP2;ratioP2;P2;SDS_P1;SDS_P2;PMS_P1;PMS_P2;Temp;Humidity;BMP_temperature;BMP_pressure;BME280_temperature;BME280_humidity;BME280_pressure;Samples;Min_cycle;Max_cycle;Signal;HPM_P1;HPM_P2
2021/09/02 00:00:37;;;;;;;5.45;4.32;;;13.70;99.90;;;;;;5033554;28;20229;-69
2021/09/02 00:03:03;;;;;;;6.72;4.55;;;13.70;99.90;;;;;;5051612;28;20174;-67
2021/09/02 00:05:29;;;;;;;10.75;5.55;;;13.70;99.90;;;;;;5049799;28;20233;-69
2021/09/02 00:07:55;;;;;;;8.27;5.18;;;13.70;99.90;;;;;;5048050;28;20618;-68
2021/09/02 00:10:20;;;;;;;5.97;4.75;;;13.60;99.90;;;;;;5046171;28;20540;-69
2021/09/02 00:12:46;;;;;;;6.25;5.20;;;13.60;99.90;;;;;;5044626;28;20190;-69
2021/09/02 00:15:12;;;;;;;8.50;4.90;;;13.60;99.90;;;;;;5047896;28;20194;-68
2021/09/02 00:17:38;;;;;;;6.25;4.90;;;13.50;99.90;;;;;;5030996;28;20182;-68
2021/09/02 00:20:05;;;;;;;7.15;5.05;;;13.50;99.90;;;;;;5049481;28;20198;-69
2021/09/02 00:22:30;;;;;;;8.32;5.32;;;13.50;99.90;;;;;;5048957;28;20743;-70
2021/09/02 00:24:56;;;;;;;7.43;4.63;;;13.40;99.90;;;;;;5030788;28;20229;-68
2021/09/02 00:27:22;;;;;;;7.05;5.40;;;13.40;99.90;;;;;;5049670;28;20269;-69
2021/09/02 00:29:47;;;;;;;8.68;5.22;;;13.40;99.90;;;;;;5049507;28;20170;-68
2021/09/02 00:32:15;;;;;;;7.75;5.28;;;13.40;99.90;;;;;;5049219;28;20181;-70
2021/09/02 00:34:41;;;;;;;10.30;5.45;;;13.40;99.90;;;;;;5048731;28;20193;-69
2021/09/02 00:37:06;;;;;;;6.80;5.22;;;13.40;99.90;;;;;;5049374;28;20182;-68
2021/09/02 00:39:32;;;;;;;5.63;4.70;;;13.40;99.90;;;;;;5049346;28;20178;-68
2021/09/02 00:41:58;;;;;;;5.60;4.38;;;13.40;99.90;;;;;;5049109;28;20201;-69
2021/09/02 00:44:34;;;;;;;9.88;5.50;;;13.40;99.90;;;;;;5048609;28;20202;-69
2021/09/02 00:47:02;;;;;;;7.03;4.72;;;13.30;99.90;;;;;;5049191;28;20615;-69
2021/09/02 00:49:29;;;;;;;8.07;5.43;;;13.20;99.90;;;;;;5048935;28;20657;-67
2021/09/02 00:51:57;;;;;;;7.13;4.68;;;13.20;99.90;;;;;;5049470;28;20628;-68
2021/09/02 00:54:23;;;;;;;8.25;5.55;;;13.20;99.90;;;;;;5047914;28;20255;-69
2021/09/02 00:56:48;;;;;;;7.07;5.22;;;13.20;99.90;;;;;;5049023;28;20182;-68
2021/09/02 00:59:14;;;;;;;6.40;5.50;;;13.20;99.90;;;;;;5048676;28;20248;-69
2021/09/02 01:01:40;;;;;;;8.73;5.47;;;13.10;99.90;;;;;;5030956;28;20187;-69
2021/09/02 01:04:05;;;;;;;6.50;4.97;;;13.20;99.90;;;;;;5048015;28;20185;-69
2021/09/02 01:06:32;;;;;;;9.82;5.28;;;13.20;99.90;;;;;;5048198;28;20204;-68
2021/09/02 01:08:59;;;;;;;9.57;5.95;;;13.10;99.90;;;;;;5048009;28;20666;-68
2021/09/02 01:11:25;;;;;;;8.27;5.40;;;13.10;99.90;;;;;;5048763;28;20712;-69
2021/09/02 01:13:51;;;;;;;7.32;5.28;;;13.10;99.90;;;;;;5048163;28;20178;-69
2021/09/02 01:16:16;;;;;;;7.05;5.82;;;13.00;99.90;;;;;;5048407;28;20198;-69
2021/09/02 01:18:42;;;;;;;8.98;5.82;;;13.00;99.90;;;;;;5048213;28;20653;-69
2021/09/02 01:21:07;;;;;;;6.15;5.22;;;12.90;99.90;;;;;;5048344;28;20192;-69
2021/09/02 01:23:38;;;;;;;11.25;5.22;;;12.90;99.90;;;;;;5048168;28;20194;-69
2021/09/02 01:26:15;;;;;;;6.72;5.03;;;12.90;99.90;;;;;;5029510;28;20291;-69
2021/09/02 01:28:42;;;;;;;6.75;5.35;;;12.90;99.90;;;;;;5047872;28;20606;-69
2021/09/02 01:31:07;;;;;;;11.50;5.65;;;12.90;99.90;;;;;;5048435;28;20174;-69
2021/09/02 01:33:34;;;;;;;6.97;5.63;;;13.00;99.90;;;;;;5047979;28;20186;-68
2021/09/02 01:36:00;;;;;;;8.90;5.78;;;12.90;99.90;;;;;;5029324;28;20198;-68
2021/09/02 01:38:26;;;;;;;8.38;4.97;;;12.90;99.90;;;;;;5048027;28;20248;-68
2021/09/02 01:40:52;;;;;;;8.60;5.68;;;12.80;99.90;;;;;;5048101;28;20182;-69
2021/09/02 01:43:17;;;;;;;7.78;5.43;;;12.80;99.90;;;;;;5048055;28;20289;-70
2021/09/02 01:45:44;;;;;;;6.25;4.97;;;12.80;99.90;;;;;;5044973;28;20210;-69
2021/09/02 01:48:10;;;;;;;8.63;5.57;;;12.80;99.90;;;;;;5046087;28;20642;-67
2021/09/02 01:50:40;;;;;;;8.55;4.88;;;12.80;99.90;;;;;;5045954;28;20170;-68
2021/09/02 01:53:09;;;;;;;7.05;5.65;;;12.70;99.90;;;;;;5028167;28;20557;-69
2021/09/02 01:55:35;;;;;;;6.38;5.32;;;12.60;99.90;;;;;;5045212;28;20206;-69
2021/09/02 01:58:03;;;;;;;8.60;5.65;;;12.50;99.90;;;;;;5046325;28;20271;-68
2021/09/02 02:00:29;;;;;;;7.28;5.88;;;12.40;99.90;;;;;;5045744;28;20944;-68
2021/09/02 02:02:54;;;;;;;8.85;6.07;;;12.40;99.90;;;;;;5045895;28;20186;-69
2021/09/02 02:05:20;;;;;;;9.73;5.50;;;12.40;99.90;;;;;;5045364;28;20216;-70
2021/09/02 02:07:46;;;;;;;10.65;5.13;;;12.40;99.90;;;;;;5036502;28;20288;-69
2021/09/02 02:10:15;;;;;;;7.47;5.50;;;12.40;99.90;;;;;;5045883;28;20235;-69
2021/09/02 02:12:40;;;;;;;8.40;5.70;;;12.30;99.90;;;;;;5046043;28;20562;-69
2021/09/02 02:15:08;;;;;;;8.65;6.10;;;12.30;99.90;;;;;;5045051;28;20202;-69
2021/09/02 02:17:34;;;;;;;7.57;5.63;;;12.30;99.90;;;;;;5045702;28;20659;-68
2021/09/02 02:19:59;;;;;;;6.95;5.18;;;12.30;99.90;;;;;;5046675;28;20197;-68
2021/09/02 02:22:25;;;;;;;11.15;6.07;;;12.20;99.90;;;;;;5050096;28;20533;-69
2021/09/02 02:24:51;;;;;;;10.38;6.30;;;12.30;99.90;;;;;;5049216;28;20206;-69
2021/09/02 02:27:26;;;;;;;8.38;5.82;;;12.30;99.90;;;;;;5049908;28;20192;-69
2021/09/02 02:29:52;;;;;;;9.50;5.97;;;12.30;99.90;;;;;;5031967;28;20188;-68
2021/09/02 02:32:17;;;;;;;9.77;5.78;;;12.20;99.90;;;;;;5050079;28;20178;-69
2021/09/02 02:34:43;;;;;;;8.48;5.57;;;12.20;99.90;;;;;;5049170;28;20213;-68
2021/09/02 02:37:09;;;;;;;9.23;5.95;;;12.10;99.90;;;;;;5049826;28;20189;-69
2021/09/02 02:39:38;;;;;;;10.07;5.28;;;12.20;99.90;;;;;;5050344;28;20178;-68
2021/09/02 02:42:06;;;;;;;10.82;5.60;;;12.10;99.90;;;;;;5052823;28;20174;-68
2021/09/02 02:44:32;;;;;;;9.32;5.18;;;12.10;99.90;;;;;;5051306;28;20259;-69
2021/09/02 02:46:58;;;;;;;9.75;5.78;;;12.10;99.90;;;;;;5052520;28;20186;-68
2021/09/02 02:49:23;;;;;;;9.40;5.57;;;12.10;99.90;;;;;;5052352;28;20198;-67
2021/09/02 02:51:49;;;;;;;8.45;5.43;;;12.10;99.90;;;;;;5052685;28;20279;-68
2021/09/02 02:54:14;;;;;;;6.55;5.03;;;12.10;99.90;;;;;;5051921;28;20185;-68
2021/09/02 02:56:40;;;;;;;6.85;4.70;;;12.00;99.90;;;;;;5051723;28;20182;-69
2021/09/02 02:59:06;;;;;;;7.70;4.80;;;11.90;99.90;;;;;;5050523;28;20193;-69
2021/09/02 03:01:31;;;;;;;7.95;5.50;;;12.00;99.90;;;;;;5051615;28;20240;-68
2021/09/02 03:03:57;;;;;;;8.35;5.35;;;12.00;99.90;;;;;;5051374;28;20186;-68
2021/09/02 03:06:23;;;;;;;6.55;5.25;;;12.00;99.90;;;;;;5051661;28;20221;-69
2021/09/02 03:08:48;;;;;;;6.95;4.68;;;11.80;99.90;;;;;;5051552;28;20206;-68
2021/09/02 03:11:14;;;;;;;8.30;5.15;;;11.70;99.90;;;;;;5051699;28;20243;-68
2021/09/02 03:13:40;;;;;;;7.70;5.35;;;11.70;99.90;;;;;;5052239;28;20186;-69
2021/09/02 03:16:06;;;;;;;7.47;5.65;;;11.60;99.90;;;;;;5051568;28;20213;-68
2021/09/02 03:18:32;;;;;;;10.13;5.65;;;11.60;99.90;;;;;;5051783;28;20190;-68
2021/09/02 03:20:58;;;;;;;8.35;5.30;;;11.60;99.90;;;;;;5051930;28;20182;-70
2021/09/02 03:23:23;;;;;;;5.40;4.70;;;11.70;99.90;;;;;;5051350;28;20601;-68
2021/09/02 03:25:49;;;;;;;8.13;5.20;;;11.60;99.90;;;;;;5051213;28;20229;-68
2021/09/02 03:28:14;;;;;;;8.45;5.53;;;11.60;99.90;;;;;;5051709;28;20206;-68
2021/09/02 03:30:40;;;;;;;10.48;5.45;;;11.60;99.90;;;;;;5051582;28;20293;-67
2021/09/02 03:33:06;;;;;;;7.20;5.20;;;11.60;99.90;;;;;;5049946;28;20174;-69
2021/09/02 03:35:31;;;;;;;6.50;5.22;;;11.60;99.90;;;;;;5033223;28;20194;-67
2021/09/02 03:37:57;;;;;;;6.88;5.60;;;11.50;99.90;;;;;;5051533;28;20186;-69
2021/09/02 03:40:23;;;;;;;8.90;6.28;;;11.40;99.90;;;;;;5051514;28;20186;-68
2021/09/02 03:42:48;;;;;;;8.60;5.47;;;11.60;99.90;;;;;;5051366;28;20273;-69
2021/09/02 03:45:14;;;;;;;8.02;5.90;;;11.50;99.90;;;;;;5032410;28;20206;-69
2021/09/02 03:47:46;;;;;;;8.30;5.40;;;11.50;99.90;;;;;;5051447;28;20198;-69
2021/09/02 03:50:12;;;;;;;7.45;5.20;;;11.50;99.90;;;;;;5050884;28;20221;-69
2021/09/02 03:52:37;;;;;;;11.13;5.60;;;11.70;99.90;;;;;;5051388;28;20202;-68
2021/09/02 03:55:04;;;;;;;6.38;5.03;;;11.80;99.90;;;;;;5050031;28;20589;-68
2021/09/02 03:57:30;;;;;;;7.40;6.47;;;11.80;99.90;;;;;;5051054;28;20205;-67
2021/09/02 03:59:55;;;;;;;9.20;5.70;;;11.90;99.90;;;;;;5050773;28;20631;-68
2021/09/02 04:02:21;;;;;;;8.90;5.95;;;11.90;99.90;;;;;;5051162;28;20182;-69
2021/09/02 04:04:47;;;;;;;8.32;6.50;;;11.90;99.90;;;;;;5050020;28;20292;-69
2021/09/02 04:07:12;;;;;;;9.05;6.07;;;11.90;99.90;;;;;;5051307;28;20539;-68
2021/09/02 04:09:38;;;;;;;9.35;6.60;;;11.90;99.90;;;;;;5050547;28;20778;-69
2021/09/02 04:12:04;;;;;;;10.95;6.25;;;12.00;99.90;;;;;;5051078;28;20178;-69
2021/09/02 04:14:29;;;;;;;5.90;5.07;;;12.00;99.90;;;;;;5049467;28;20202;-67
2021/09/02 04:16:55;;;;;;;11.13;5.80;;;12.00;99.90;;;;;;5050318;28;20277;-68
2021/09/02 04:19:24;;;;;;;7.35;5.53;;;12.00;99.90;;;;;;5050290;28;20166;-67
2021/09/02 04:21:51;;;;;;;13.43;5.47;;;11.90;99.90;;;;;;5050072;28;20637;-68
2021/09/02 04:24:17;;;;;;;7.47;5.70;;;12.00;99.90;;;;;;5047498;28;20280;-68
2021/09/02 04:26:42;;;;;;;8.50;5.28;;;12.00;99.90;;;;;;5031788;28;20265;-69
2021/09/02 04:29:08;;;;;;;7.50;4.68;;;12.00;99.90;;;;;;5050196;28;20435;-69
2021/09/02 04:31:34;;;;;;;6.32;4.68;;;12.00;99.90;;;;;;5050047;28;20264;-68
2021/09/02 04:33:59;;;;;;;11.93;4.93;;;12.00;99.90;;;;;;5049681;28;20236;-69
2021/09/02 04:36:25;;;;;;;8.80;5.53;;;12.10;99.90;;;;;;5049872;28;20544;-68
2021/09/02 04:38:50;;;;;;;8.50;5.95;;;12.10;99.90;;;;;;5049862;28;20183;-68
2021/09/02 04:41:16;;;;;;;7.47;5.45;;;12.10;99.90;;;;;;5050016;28;20514;-68
2021/09/02 04:43:42;;;;;;;7.00;5.03;;;12.10;99.90;;;;;;5049404;28;20658;-70
2021/09/02 04:46:08;;;;;;;9.85;5.22;;;12.10;99.90;;;;;;5049501;28;20216;-70
2021/09/02 04:48:33;;;;;;;7.43;5.30;;;12.20;99.90;;;;;;5049686;28;20517;-68
2021/09/02 04:50:59;;;;;;;7.75;5.47;;;12.30;99.90;;;;;;5049698;28;20261;-67
2021/09/02 04:53:24;;;;;;;7.78;5.55;;;12.40;99.90;;;;;;5049742;28;20174;-69
2021/09/02 04:55:50;;;;;;;9.20;5.68;;;12.40;99.90;;;;;;5030814;28;20297;-70
2021/09/02 04:58:16;;;;;;;10.43;5.60;;;12.50;99.90;;;;;;5049711;28;20178;-69
2021/09/02 05:00:43;;;;;;;10.57;5.90;;;12.60;99.90;;;;;;5049716;28;20205;-68
2021/09/02 05:03:09;;;;;;;11.13;5.90;;;12.70;99.90;;;;;;5050293;28;20186;-69
2021/09/02 05:05:34;;;;;;;8.35;6.18;;;12.90;99.90;;;;;;5030701;28;20213;-69
2021/09/02 05:08:00;;;;;;;7.00;5.88;;;12.90;99.90;;;;;;5049194;28;20202;-69
2021/09/02 05:10:26;;;;;;;7.53;5.63;;;13.00;99.90;;;;;;5049191;28;20677;-68
2021/09/02 05:12:52;;;;;;;7.97;6.00;;;13.00;99.90;;;;;;5047826;28;20519;-68
2021/09/02 05:15:18;;;;;;;8.27;5.65;;;13.00;99.90;;;;;;5048699;28;20197;-69
2021/09/02 05:17:45;;;;;;;10.32;6.30;;;13.10;99.90;;;;;;5048687;28;20197;-69
2021/09/02 05:20:11;;;;;;;10.18;6.80;;;13.10;99.90;;;;;;5049080;28;20273;-69
2021/09/02 05:22:36;;;;;;;11.85;6.32;;;13.20;99.90;;;;;;5048694;28;20396;-68
2021/09/02 05:25:02;;;;;;;8.32;5.68;;;13.30;99.90;;;;;;5048151;28;20284;-69
2021/09/02 05:27:28;;;;;;;7.53;5.63;;;13.30;99.90;;;;;;5048592;28;20641;-69
2021/09/02 05:29:54;;;;;;;12.55;6.50;;;13.40;99.90;;;;;;5048792;28;20201;-70
2021/09/02 05:32:20;;;;;;;8.50;5.25;;;13.40;99.90;;;;;;5048328;28;20183;-70
2021/09/02 05:34:46;;;;;;;7.50;5.65;;;13.50;99.90;;;;;;5047924;28;20209;-69
2021/09/02 05:37:11;;;;;;;9.05;5.93;;;13.60;99.90;;;;;;5048902;28;20212;-69
2021/09/02 05:39:37;;;;;;;8.68;5.72;;;13.70;99.90;;;;;;5030554;28;20202;-69
2021/09/02 05:42:03;;;;;;;8.23;6.03;;;13.70;99.90;;;;;;5048902;28;20261;-70
2021/09/02 05:44:30;;;;;;;8.63;6.10;;;13.70;99.90;;;;;;5047896;28;20847;-70
2021/09/02 05:46:56;;;;;;;8.80;6.22;;;13.80;99.90;;;;;;5031024;28;20535;-69
2021/09/02 05:49:22;;;;;;;8.38;5.72;;;13.80;99.90;;;;;;5030677;28;20206;-68
2021/09/02 05:51:48;;;;;;;8.88;5.82;;;13.80;99.90;;;;;;5048535;28;20186;-68
2021/09/02 05:54:14;;;;;;;10.65;6.72;;;13.70;99.90;;;;;;5047898;28;20540;-69
2021/09/02 05:56:40;;;;;;;10.10;6.10;;;13.80;99.90;;;;;;5048261;28;20185;-68
2021/09/02 05:59:05;;;;;;;8.27;5.88;;;13.90;99.90;;;;;;5029566;28;20190;-70
2021/09/02 06:01:31;;;;;;;9.05;6.40;;;14.00;99.90;;;;;;5044711;28;20186;-68
2021/09/02 06:03:57;;;;;;;9.23;6.28;;;14.10;99.90;;;;;;5043419;28;20179;-68
2021/09/02 06:06:22;;;;;;;9.73;6.40;;;14.10;99.90;;;;;;5044189;28;20198;-69
2021/09/02 06:08:48;;;;;;;9.68;6.03;;;14.10;99.90;;;;;;5044426;28;20365;-68
2021/09/02 06:11:14;;;;;;;10.30;6.35;;;14.10;99.90;;;;;;5045419;28;20174;-69
2021/09/02 06:13:40;;;;;;;8.48;5.82;;;14.20;99.90;;;;;;5045942;28;20186;-69
2021/09/02 06:16:05;;;;;;;9.40;6.32;;;14.30;99.90;;;;;;5045700;28;20209;-69
2021/09/02 06:18:31;;;;;;;8.52;5.60;;;14.40;99.90;;;;;;5046437;28;20186;-68
2021/09/02 06:20:57;;;;;;;8.10;5.90;;;14.60;99.90;;;;;;5045960;28;20182;-69
2021/09/02 06:23:23;;;;;;;11.85;6.88;;;14.70;99.90;;;;;;5045504;28;20268;-68
2021/09/02 06:25:49;;;;;;;9.65;5.50;;;14.70;99.90;;;;;;5045041;28;20213;-68
2021/09/02 06:28:14;;;;;;;11.10;7.05;;;14.80;99.90;;;;;;5044861;28;20201;-69
2021/09/02 06:30:40;;;;;;;10.38;6.80;;;14.90;99.90;;;;;;5026330;28;20186;-69
2021/09/02 06:33:06;;;;;;;9.82;6.30;;;15.00;99.90;;;;;;5044056;28;20183;-69
2021/09/02 06:35:32;;;;;;;9.50;6.85;;;15.10;99.90;;;;;;5043337;28;20202;-67
2021/09/02 06:37:58;;;;;;;8.60;6.05;;;15.10;99.90;;;;;;5043739;28;20646;-70
2021/09/02 06:40:24;;;;;;;7.88;5.70;;;15.20;99.90;;;;;;5043737;28;20186;-69
2021/09/02 06:42:49;;;;;;;9.75;6.68;;;15.30;99.90;;;;;;5043707;28;20195;-69
2021/09/02 06:45:17;;;;;;;13.27;6.65;;;15.40;99.90;;;;;;5042755;28;20206;-68
2021/09/02 06:47:43;;;;;;;13.90;6.88;;;15.50;99.90;;;;;;5043753;28;20255;-69
2021/09/02 06:50:11;;;;;;;12.73;7.57;;;15.60;99.90;;;;;;5043710;28;20637;-69
2021/09/02 06:52:38;;;;;;;18.00;7.25;;;15.80;99.90;;;;;;5042873;28;20243;-70
2021/09/02 06:55:04;;;;;;;25.58;9.05;;;15.80;99.90;;;;;;5042338;28;20202;-68
2021/09/02 06:57:30;;;;;;;10.60;6.88;;;15.90;99.90;;;;;;5043793;28;20641;-68
2021/09/02 06:59:56;;;;;;;13.25;6.63;;;16.00;99.90;;;;;;5042272;28;20814;-69
2021/09/02 07:02:23;;;;;;;13.88;7.20;;;16.20;99.90;;;;;;5025883;28;20217;-68
2021/09/02 07:04:49;;;;;;;10.65;6.47;;;16.50;99.90;;;;;;5041734;28;20351;-70
2021/09/02 07:07:15;;;;;;;17.15;7.13;;;17.00;99.90;;;;;;5026108;28;20255;-69
2021/09/02 07:09:41;;;;;;;23.63;7.72;;;17.50;99.90;;;;;;5047099;28;20282;-70
2021/09/02 07:12:07;;;;;;;25.63;8.60;;;17.70;99.90;;;;;;5047005;28;20646;-69
2021/09/02 07:14:32;;;;;;;10.15;6.38;;;17.70;99.90;;;;;;5045466;28;20197;-69
2021/09/02 07:16:58;;;;;;;46.03;11.93;;;17.60;99.90;;;;;;5046469;28;20186;-69
2021/09/02 07:19:24;;;;;;;34.92;10.02;;;17.60;99.90;;;;;;5047332;28;20232;-69
2021/09/02 07:21:50;;;;;;;9.15;5.43;;;17.80;99.90;;;;;;5047421;28;20638;-69
2021/09/02 07:24:16;;;;;;;27.15;9.07;;;17.80;99.90;;;;;;5047011;28;20189;-69
2021/09/02 07:26:41;;;;;;;18.35;7.03;;;17.90;99.90;;;;;;5047351;28;20179;-70
2021/09/02 07:29:08;;;;;;;9.18;5.97;;;18.00;99.90;;;;;;5047331;28;20253;-69
2021/09/02 07:31:39;;;;;;;8.57;5.78;;;18.00;99.90;;;;;;5046398;28;20178;-69
2021/09/02 07:34:05;;;;;;;37.65;9.50;;;18.00;99.90;;;;;;5045794;28;20184;-68
2021/09/02 07:36:31;;;;;;;9.88;5.45;;;18.10;99.90;;;;;;5047133;28;20181;-69
2021/09/02 07:38:56;;;;;;;11.95;6.07;;;18.20;99.90;;;;;;5046927;28;20194;-69
2021/09/02 07:41:23;;;;;;;16.02;5.45;;;18.20;99.90;;;;;;5046784;28;20218;-68
2021/09/02 07:43:49;;;;;;;18.65;5.95;;;18.20;99.90;;;;;;5046351;28;20197;-69
2021/09/02 07:46:15;;;;;;;10.05;4.32;;;18.40;99.90;;;;;;5046209;28;20225;-69
2021/09/02 07:48:47;;;;;;;6.97;4.10;;;18.70;99.90;;;;;;5046727;28;20198;-68
2021/09/02 07:51:14;;;;;;;31.45;7.85;;;19.00;99.90;;;;;;5046316;28;20178;-69
2021/09/02 07:53:40;;;;;;;12.05;4.78;;;19.20;99.90;;;;;;5046643;28;20184;-70
2021/09/02 07:56:06;;;;;;;7.80;4.00;;;19.30;99.90;;;;;;5046459;28;20205;-69
2021/09/02 07:58:32;;;;;;;5.32;4.13;;;19.30;99.90;;;;;;5046434;28;20182;-70
2021/09/02 08:00:58;;;;;;;6.32;3.55;;;19.20;99.90;;;;;;5028351;28;20201;-70
2021/09/02 08:03:23;;;;;;;7.47;3.40;;;19.20;99.90;;;;;;5028616;28;20201;-68
2021/09/02 08:05:50;;;;;;;4.78;3.33;;;19.20;99.90;;;;;;5045495;28;20205;-70
2021/09/02 08:08:18;;;;;;;5.80;3.45;;;19.20;99.90;;;;;;5046427;28;20283;-69
2021/09/02 08:10:46;;;;;;;6.97;4.20;;;19.30;99.90;;;;;;5046483;28;20178;-69
2021/09/02 08:13:12;;;;;;;9.85;4.50;;;19.30;99.90;;;;;;5028741;28;20186;-71
2021/09/02 08:15:39;;;;;;;4.90;3.88;;;19.20;99.90;;;;;;5027031;28;20251;-70
2021/09/02 08:18:05;;;;;;;7.88;3.90;;;19.20;99.90;;;;;;5047352;28;20194;-70
2021/09/02 08:20:32;;;;;;;9.38;3.88;;;19.00;99.90;;;;;;5029166;28;20605;-71
2021/09/02 08:22:58;;;;;;;8.32;4.43;;;18.80;99.90;;;;;;5043782;28;20344;-68
2021/09/02 08:25:24;;;;;;;8.18;4.03;;;18.70;99.90;;;;;;5043772;28;20209;-68
2021/09/02 08:27:51;;;;;;;9.38;3.88;;;18.50;99.90;;;;;;5028000;28;20260;-69
2021/09/02 08:30:20;;;;;;;6.03;3.78;;;18.50;99.90;;;;;;5043534;28;20716;-69
2021/09/02 08:32:48;;;;;;;6.95;3.63;;;18.60;99.90;;;;;;5046715;28;20170;-68
2021/09/02 08:35:22;;;;;;;6.85;4.07;;;18.60;99.90;;;;;;5045612;28;20205;-69
2021/09/02 08:37:52;;;;;;;5.78;3.78;;;18.90;99.90;;;;;;5045629;28;20178;-70
2021/09/02 08:40:19;;;;;;;7.35;4.00;;;19.00;99.90;;;;;;5045701;28;20206;-69
2021/09/02 08:42:46;;;;;;;7.13;3.58;;;19.00;99.90;;;;;;5045518;28;20178;-69
2021/09/02 08:45:12;;;;;;;7.03;4.10;;;19.00;99.90;;;;;;5044396;28;20259;-69
2021/09/02 08:47:38;;;;;;;8.52;3.42;;;19.00;99.90;;;;;;5027543;28;20182;-70
2021/09/02 08:50:05;;;;;;;8.85;3.13;;;18.80;99.90;;;;;;5045358;28;20633;-69
2021/09/02 08:52:31;;;;;;;5.75;3.28;;;18.70;99.90;;;;;;5045789;28;20175;-70
2021/09/02 08:54:57;;;;;;;4.95;3.03;;;18.50;99.90;;;;;;5044117;28;20225;-70
2021/09/02 08:57:24;;;;;;;6.15;3.80;;;18.50;99.90;;;;;;5045426;28;20178;-70
2021/09/02 08:59:50;;;;;;;7.38;3.60;;;18.50;99.90;;;;;;5044691;28;20190;-69
2021/09/02 09:02:23;;;;;;;5.68;3.80;;;18.50;99.90;;;;;;5026558;28;20194;-70
2021/09/02 09:05:00;;;;;;;8.25;4.00;;;18.30;99.90;;;;;;5043796;28;20210;-69
2021/09/02 09:07:31;;;;;;;5.70;3.85;;;18.30;99.90;;;;;;5044422;28;20186;-70
2021/09/02 09:09:56;;;;;;;7.03;4.22;;;18.30;99.90;;;;;;5043769;28;20201;-70
2021/09/02 09:12:33;;;;;;;6.65;4.32;;;18.40;99.90;;;;;;5044846;28;20186;-70
2021/09/02 09:14:59;;;;;;;7.97;3.45;;;18.30;99.90;;;;;;5043107;28;20210;-69
2021/09/02 09:17:25;;;;;;;5.25;3.60;;;18.30;99.90;;;;;;5044786;28;20192;-71
2021/09/02 09:19:53;;;;;;;7.00;3.78;;;18.40;99.90;;;;;;5044870;28;20212;-67
2021/09/02 09:22:21;;;;;;;5.60;3.47;;;18.30;99.90;;;;;;5044635;28;20198;-68
2021/09/02 09:25:01;;;;;;;7.95;4.38;;;18.30;99.90;;;;;;5025794;28;20209;-68
2021/09/02 09:27:35;;;;;;;5.20;3.25;;;18.50;99.90;;;;;;5044637;28;20178;-70
2021/09/02 09:30:12;;;;;;;7.80;3.70;;;18.60;99.90;;;;;;5044396;28;20182;-69
2021/09/02 09:32:50;;;;;;;8.18;3.70;;;18.80;99.90;;;;;;5043799;28;20176;-70
2021/09/02 09:35:22;;;;;;;6.07;3.90;;;18.70;99.90;;;;;;5041257;28;20221;-69
2021/09/02 09:37:49;;;;;;;5.03;3.03;;;18.60;99.90;;;;;;5044401;28;20166;-70
2021/09/02 09:40:24;;;;;;;7.63;4.00;;;18.60;99.90;;;;;;5044705;28;20178;-70
2021/09/02 09:43:04;;;;;;;5.25;3.97;;;18.80;99.90;;;;;;5043824;28;20280;-70
2021/09/02 09:45:44;;;;;;;7.60;4.53;;;18.80;99.90;;;;;;5043230;28;20255;-70
2021/09/02 09:48:22;;;;;;;6.03;4.10;;;19.00;99.90;;;;;;5044002;28;20194;-71
2021/09/02 09:51:11;;;;;;;6.13;3.85;;;18.90;99.90;;;;;;5026799;28;20256;-70
2021/09/02 09:53:38;;;;;;;7.65;4.38;;;19.10;99.90;;;;;;5043050;28;20182;-69
2021/09/02 09:56:05;;;;;;;5.57;3.85;;;18.70;99.90;;;;;;5043606;28;20553;-70
2021/09/02 09:58:30;;;;;;;6.93;4.25;;;18.80;99.90;;;;;;5044498;28;20293;-69
2021/09/02 10:01:00;;;;;;;9.50;4.00;;;19.00;99.90;;;;;;5044046;28;21318;-70
2021/09/02 10:03:29;;;;;;;7.88;4.72;;;19.20;99.90;;;;;;5043955;28;20193;-71
2021/09/02 10:05:58;;;;;;;4.78;3.83;;;19.00;99.90;;;;;;5043321;28;20206;-70
2021/09/02 10:08:26;;;;;;;9.23;4.32;;;18.80;99.90;;;;;;5044487;28;20197;-72
2021/09/02 10:10:52;;;;;;;7.13;4.75;;;18.60;99.90;;;;;;5043473;28;20265;-69
2021/09/02 10:13:19;;;;;;;6.63;4.47;;;18.60;99.90;;;;;;5026959;28;20174;-69
2021/09/02 10:15:46;;;;;;;8.50;4.53;;;18.60;99.90;;;;;;5042592;28;20194;-70
2021/09/02 10:18:13;;;;;;;8.73;5.10;;;18.50;99.90;;;;;;5043789;28;20194;-70
2021/09/02 10:20:41;;;;;;;7.70;4.80;;;18.80;99.90;;;;;;5044443;28;20770;-69
2021/09/02 10:23:07;;;;;;;6.15;4.25;;;19.10;99.90;;;;;;5044342;28;21013;-71
2021/09/02 10:25:33;;;;;;;7.70;4.88;;;19.30;99.90;;;;;;5043069;28;20619;-69
2021/09/02 10:28:00;;;;;;;6.85;4.45;;;19.50;99.90;;;;;;5044284;28;20202;-70
2021/09/02 10:30:27;;;;;;;6.65;4.18;;;19.60;99.90;;;;;;5043840;28;20174;-69
2021/09/02 10:32:54;;;;;;;8.05;4.13;;;19.80;99.90;;;;;;5044399;28;20316;-70
2021/09/02 10:35:20;;;;;;;6.18;3.95;;;20.00;99.90;;;;;;5043439;28;20198;-72
2021/09/02 10:37:45;;;;;;;5.50;3.70;;;20.30;99.90;;;;;;5043817;28;20194;-69
2021/09/02 10:40:17;;;;;;;7.20;4.28;;;20.20;99.90;;;;;;5025425;28;20197;-69
2021/09/02 10:42:52;;;;;;;7.75;3.70;;;20.20;99.90;;;;;;5045889;28;20638;-70
2021/09/02 10:45:27;;;;;;;8.77;4.95;;;20.50;99.90;;;;;;5046168;28;20540;-69
2021/09/02 10:47:54;;;;;;;6.50;4.10;;;20.50;99.90;;;;;;5047428;28;20293;-69
2021/09/02 10:50:23;;;;;;;11.68;5.97;;;20.70;99.90;;;;;;5047781;28;20281;-69
2021/09/02 10:52:50;;;;;;;6.78;4.43;;;20.90;99.90;;;;;;5047400;28;20255;-70
2021/09/02 10:55:29;;;;;;;9.05;4.30;;;20.50;99.90;;;;;;5046138;28;20213;-69
2021/09/02 10:57:57;;;;;;;6.63;4.55;;;20.60;99.90;;;;;;5046985;28;20644;-69
2021/09/02 11:00:33;;;;;;;6.75;3.85;;;20.70;99.90;;;;;;5047149;28;20216;-71
2021/09/02 11:03:18;;;;;;;7.13;4.32;;;20.80;99.90;;;;;;5047441;28;20182;-69
2021/09/02 11:05:49;;;;;;;6.15;4.47;;;21.00;99.90;;;;;;5046336;28;20202;-69
2021/09/02 11:08:34;;;;;;;9.57;3.92;;;20.80;99.90;;;;;;5047105;28;20209;-69
2021/09/02 11:11:15;;;;;;;6.80;4.15;;;20.90;99.90;;;;;;5046968;28;20183;-69
2021/09/02 11:13:43;;;;;;;11.55;4.88;;;20.80;99.90;;;;;;5046924;28;20317;-69
2021/09/02 11:16:14;;;;;;;6.55;4.30;;;20.70;99.90;;;;;;5046196;28;20209;-69
2021/09/02 11:18:46;;;;;;;7.72;4.28;;;20.70;99.90;;;;;;5047142;28;20182;-69
2021/09/02 11:21:21;;;;;;;5.00;3.80;;;20.70;99.90;;;;;;5028592;28;20182;-69
2021/09/02 11:23:55;;;;;;;9.95;3.72;;;21.00;99.90;;;;;;5046866;28;20178;-69
2021/09/02 11:26:36;;;;;;;5.18;3.55;;;21.30;99.90;;;;;;5046646;28;20363;-69
2021/09/02 11:29:04;;;;;;;6.47;4.50;;;21.30;99.90;;;;;;5046829;28;20201;-69
2021/09/02 11:31:30;;;;;;;6.47;4.47;;;21.20;99.90;;;;;;5028435;28;20235;-70
2021/09/02 11:33:56;;;;;;;8.50;4.82;;;21.20;99.90;;;;;;5046227;28;20233;-69
2021/09/02 11:36:22;;;;;;;9.20;4.63;;;21.30;99.90;;;;;;5028536;28;20673;-70
2021/09/02 11:38:50;;;;;;;6.65;3.97;;;21.00;99.90;;;;;;5046874;28;20194;-69
2021/09/02 11:41:25;;;;;;;7.93;4.22;;;21.00;99.90;;;;;;5046827;28;20186;-70
2021/09/02 11:43:52;;;;;;;5.50;3.70;;;21.20;99.90;;;;;;5045683;28;20701;-69
2021/09/02 11:46:22;;;;;;;7.20;3.97;;;21.50;99.90;;;;;;5046106;28;20267;-70
2021/09/02 11:48:50;;;;;;;8.63;3.60;;;21.80;99.90;;;;;;5046341;28;20289;-70
2021/09/02 11:51:25;;;;;;;5.38;3.72;;;22.00;99.90;;;;;;5046231;28;20188;-69
2021/09/02 11:54:12;;;;;;;8.55;4.00;;;22.10;99.90;;;;;;5044826;28;20288;-68
2021/09/02 11:56:43;;;;;;;4.78;3.30;;;22.10;99.90;;;;;;5046332;28;20546;-70
2021/09/02 11:59:12;;;;;;;4.50;3.30;;;22.10;99.90;;;;;;5028125;28;20190;-70
2021/09/02 12:01:48;;;;;;;5.82;3.42;;;22.10;99.90;;;;;;5046089;28;20205;-70
2021/09/02 12:04:18;;;;;;;6.00;3.75;;;22.10;99.90;;;;;;5045408;28;20193;-70
2021/09/02 12:06:46;;;;;;;4.63;3.28;;;22.10;99.90;;;;;;5045891;28;20178;-69
2021/09/02 12:09:12;;;;;;;4.28;3.45;;;22.10;99.90;;;;;;5045928;28;20328;-70
2021/09/02 12:11:41;;;;;;;6.97;3.95;;;22.20;99.90;;;;;;5045869;28;20232;-69
2021/09/02 12:14:34;;;;;;;7.70;3.80;;;22.10;99.90;;;;;;5044734;28;20182;-68
2021/09/02 12:17:12;;;;;;;6.10;3.38;;;22.20;99.90;;;;;;5042614;28;20182;-70
2021/09/02 12:19:57;;;;;;;6.78;4.00;;;21.80;99.90;;;;;;5045347;28;20189;-68
2021/09/02 12:22:33;;;;;;;5.25;3.38;;;21.50;99.90;;;;;;5045667;28;20174;-68
2021/09/02 12:25:17;;;;;;;5.10;3.80;;;21.50;99.90;;;;;;5043345;28;20202;-70
2021/09/02 12:27:43;;;;;;;4.30;3.88;;;21.40;99.90;;;;;;5045549;28;20527;-69
2021/09/02 12:30:09;;;;;;;5.40;3.97;;;21.40;99.90;;;;;;5045557;28;20181;-69
2021/09/02 12:32:34;;;;;;;8.30;3.88;;;21.40;99.90;;;;;;5045327;28;20186;-69
2021/09/02 12:35:11;;;;;;;4.55;3.70;;;21.30;99.90;;;;;;5044702;28;20210;-69
2021/09/02 12:37:38;;;;;;;5.20;3.50;;;21.40;99.90;;;;;;5045339;28;20263;-69
2021/09/02 12:40:10;;;;;;;6.53;3.65;;;21.50;99.90;;;;;;5027723;28;20182;-68
2021/09/02 12:42:36;;;;;;;11.27;3.85;;;21.50;99.90;;;;;;5045283;28;20178;-68
2021/09/02 12:45:18;;;;;;;6.85;3.90;;;21.90;99.90;;;;;;5026425;28;20206;-69
2021/09/02 12:47:47;;;;;;;5.78;4.05;;;22.00;99.90;;;;;;5022261;28;20188;-70